• Join FlightAware (Why Join?)
  • Login
  • US Flag 
01:47PM EDT


 

Airport Tracker/Info


-or-


 

Live Flight TrackerFlight Track Log ✈ MAL7050 ✈ 08-May-2013 ✈ CYWG - CYYC

Flight Track Log - Related Links

Times and Time Zones

All times are in EDT time to prevent confusion due to time zone crossing. See the MAL7050 flight status page for this flight to view local times or setup timezone preferences in your user account.

Time Position Orientation Groundspeed Altitude Reporting Facility
EDT Latitude Longitude Course Direction KTS MPH feet Rate Location/Type
05:24AM 49.9167 -97.2500 285° West 160 184 2,500  Level Winnipeg Center
05:25AM 49.9333 -97.3500 285° West 230 265 4,700 2,700 Climbing Winnipeg Center
05:26AM 49.9500 -97.4667 283° West 270 311 7,900 3,000 Climbing Winnipeg Center
05:27AM 49.9667 -97.5667 285° West 280 322 10,800 2,160 Climbing Winnipeg Center
05:28AM 50.0000 -97.7167 289° West 350 403 12,300 1,980 Climbing Winnipeg Center
05:29AM 50.0167 -97.8833 279° West 370 426 14,800 2,400 Climbing Winnipeg Center
05:30AM 50.0167 -98.0333 270° West 380 437 17,100 2,400 Climbing Winnipeg Center
05:31AM 50.0500 -98.1833 289° West 390 449 19,700 2,220 Climbing Winnipeg Center
05:32AM 50.0667 -98.3667 278° West 400 460 21,600 2,100 Climbing Winnipeg Center
05:33AM 50.1000 -98.5333 287° West 410 472 23,900 1,920 Climbing Winnipeg Center
05:34AM 50.1167 -98.7167 278° West 410 472 25,500 1,560 Climbing Winnipeg Center
05:35AM 50.1500 -98.9000 286° West 420 483 27,100 1,500 Climbing Winnipeg Center
05:36AM 50.1833 -99.0833 286° West 430 495 28,500 1,800 Climbing Winnipeg Center
05:37AM 50.1833 -99.2667 270° West 430 495 30,700 2,040 Climbing Winnipeg Center
05:38AM 50.2167 -99.4167 289° West 420 483 32,600 1,800 Climbing Winnipeg Center
05:39AM 50.2333 -99.6000 278° West 410 472 34,400 1,620 Climbing Winnipeg Center
05:40AM 50.2667 -99.7667 287° West 400 460 35,900 1,320 Climbing Winnipeg Center
05:41AM 50.2833 -99.9500 278° West 390 449 37,100 1,020 Climbing Winnipeg Center
05:42AM 50.3000 -100.1167 279° West 390 449 38,000 600 Climbing Winnipeg Center
05:43AM 50.3167 -100.3000 278° West 390 449 38,400 480 Climbing Winnipeg Center
05:44AM 50.3500 -100.4500 289° West 400 460 39,000 600 Climbing Winnipeg Center
05:45AM 50.3500 -100.6167 270° West 410 472 39,600 480 Climbing Winnipeg Center
05:46AM 50.3833 -100.8000 286° West 410 472 40,000 180 Climbing Winnipeg Center
05:47AM 50.4000 -100.9833 278° West 410 472 40,000  Level Winnipeg Center
05:48AM 50.4167 -101.1667 278° West 410 472 40,000  Level Winnipeg Center
05:49AM 50.4333 -101.3333 279° West 410 472 40,000  Level Winnipeg Center
05:50AM 50.4667 -101.5167 286° West 420 483 40,000  Level Winnipeg Center
05:51AM 50.4667 -101.7000 270° West 420 483 40,000  Level Winnipeg Center
05:52AM 50.5000 -101.8667 288° West 420 483 40,000  Level Winnipeg Center
05:53AM 50.5167 -102.0500 278° West 410 472 40,000  Level Winnipeg Center
05:54AM 50.5333 -102.2333 278° West 410 472 40,000  Level Winnipeg Center
05:55AM 50.5500 -102.4000 279° West 410 472 40,000  Level Winnipeg Center
05:56AM 50.5667 -102.5833 278° West 400 460 40,000  Level Winnipeg Center
05:57AM 50.5833 -102.7500 279° West 410 472 40,000  Level Winnipeg Center
05:58AM 50.6000 -102.9333 278° West 400 460 40,000  Level Winnipeg Center
05:59AM 50.6167 -103.1167 278° West 400 460 40,000  Level Winnipeg Center
06:00AM 50.6333 -103.3000 278° West 400 460 40,000  Level Winnipeg Center
06:01AM 50.6500 -103.4667 279° West 410 472 40,000  Level Winnipeg Center
06:02AM 50.6500 -103.6500 270° West 410 472 40,000  Level Winnipeg Center
06:03AM 50.6833 -103.8167 288° West 410 472 40,000  Level Winnipeg Center
06:04AM 50.6833 -104.0000 270° West 410 472 40,000  Level Winnipeg Center
06:05AM 50.7000 -104.1833 278° West 410 472 40,000  Level Winnipeg Center
06:06AM 50.7167 -104.3500 279° West 410 472 40,000  Level Winnipeg Center
06:07AM 50.7333 -104.5333 278° West 410 472 40,000  Level Winnipeg Center
06:08AM 50.7500 -104.7000 279° West 410 472 40,000  Level Winnipeg Center
06:09AM 50.7667 -104.8833 278° West 410 472 40,000  Level Winnipeg Center
06:10AM 50.7833 -105.0833 278° West 410 472 40,000  Level Winnipeg Center
06:11AM 50.7833 -105.2667 270° West 410 472 40,000  Level Winnipeg Center
06:12AM 50.8167 -105.4333 288° West 410 472 40,000  Level Winnipeg Center
06:13AM 50.8167 -105.6167 270° West 410 472 40,000  Level Winnipeg Center
06:13AM 50.8167 -105.6833 270° West 430 495 40,000  Level Edmonton Center
06:14AM 50.8333 -105.9000 277° West 430 495 40,000  Level Edmonton Center
06:15AM 50.8333 -105.9833 270° West 410 472 40,000  Level Winnipeg Center
06:16AM 50.8500 -106.1500 279° West 410 472 40,000  Level Winnipeg Center
06:17AM 50.8667 -106.3500 278° West 410 472 40,000  Level Winnipeg Center
06:17AM 50.8500 -106.4000 242° Southwest 420 483 40,000  Level Edmonton Center
06:18AM 50.8667 -106.6167 277° West 410 472 40,000  Level Edmonton Center
06:19AM 50.9000 -106.7000 302° West 410 472 40,000  Level Winnipeg Center
06:20AM 50.9000 -106.8833 270° West 410 472 40,000  Level Winnipeg Center
06:20AM 50.9000 -106.9667 270° West 400 460 40,000  Level Edmonton Center
06:21AM 50.9000 -107.1500 270° West 400 460 40,000  Level Edmonton Center
06:22AM 50.9167 -107.2667 283° West 430 495 40,000  Level Winnipeg Center
06:23AM 50.9333 -107.4500 278° West 420 483 40,000  Level Winnipeg Center
06:24AM 50.9333 -107.6167 270° West 420 483 40,000  Level Winnipeg Center
06:25AM 50.9500 -107.8000 278° West 420 483 40,000  Level Winnipeg Center
06:26AM 50.9667 -108.0000 278° West 420 483 40,000  Level Winnipeg Center
06:27AM 50.9667 -108.1500 270° West 420 483 40,000  Level Winnipeg Center
06:27AM 50.9500 -108.2667 257° West 410 472 40,000  Level Edmonton Center
06:28AM 50.9667 -108.4167 280° West 410 472 40,000  Level Edmonton Center
06:29AM 50.9833 -108.5333 283° West 420 483 40,000  Level Winnipeg Center
06:29AM 50.9667 -108.6333 255° West 410 472 40,000  Level Edmonton Center
06:30AM 50.9833 -108.8000 279° West 410 472 40,000  Level Edmonton Center
06:31AM 51.0000 -108.9167 283° West 420 483 40,000  Level Winnipeg Center
06:32AM 51.0000 -109.1000 270° West 420 483 40,000  Level Winnipeg Center
06:33AM 51.0167 -109.2667 279° West 410 472 40,000  Level Winnipeg Center
06:34AM 51.0333 -109.4333 279° West 410 472 40,000  Level Winnipeg Center
06:35AM 51.0500 -109.6333 278° West 410 472 40,000  Level Winnipeg Center
06:36AM 51.0500 -109.8167 270° West 420 483 40,000  Level Winnipeg Center
06:36AM 51.0667 -109.9000 288° West 410 472 40,000  Level Edmonton Center
06:37AM 51.0667 -110.0667 270° West 410 472 40,000  Level Edmonton Center
06:38AM 51.0833 -110.1833 283° West 420 483 40,000  Level Winnipeg Center
06:39AM 51.1000 -110.3667 278° West 420 483 40,000  Level Winnipeg Center
06:39AM 51.0833 -110.4500 252° West 420 483 40,000  Level Edmonton Center
06:40AM 51.1167 -110.6333 286° West 420 483 40,000  Level Edmonton Center
06:41AM 51.1167 -110.8333 270° West 420 483 40,000  Level Edmonton Center
06:42AM 51.1333 -110.9167 288° West 420 483 40,000  Level Winnipeg Center
06:42AM 51.1167 -111.0167 255° West 420 483 40,000  Level Edmonton Center
06:43AM 51.1500 -111.1167 298° West 430 495 40,000  Level Winnipeg Center
06:43AM 51.1500 -111.2167 270° West 420 483 40,000 -600 Level Edmonton Center
06:44AM 51.1500 -111.4000 270° West 420 483 39,100 -1,500 Descending Edmonton Center
06:45AM 51.1667 -111.5667 279° West 410 472 37,000 -2,400 Descending Edmonton Center
06:46AM 51.1667 -111.7500 270° West 400 460 34,400 -3,000 Descending Edmonton Center
06:47AM 51.1833 -111.9167 279° West 410 472 31,000 -3,600 Descending Edmonton Center
06:48AM 51.2000 -112.1000 278° West 420 483 27,200 -3,600 Descending Edmonton Center
06:49AM 51.2167 -112.3000 278° West 430 495 23,900 -3,240 Descending Edmonton Center
06:50AM 51.2167 -112.4833 270° West 420 483 20,800 -3,060 Descending Edmonton Center
06:51AM 51.2167 -112.6833 270° West 410 472 17,800 -2,700 Descending Edmonton Center
06:52AM 51.2333 -112.8500 279° West 390 449 15,500 -2,400 Descending Edmonton Center
06:53AM 51.2333 -113.0000 270° West 380 437 13,000 -2,340 Descending Edmonton Center
06:54AM 51.2500 -113.1667 279° West 360 414 10,900 -1,320 Descending Edmonton Center
06:55AM 51.2667 -113.3167 280° West 310 357 10,400 -600 Descending Edmonton Center
06:56AM 51.2500 -113.4500 259° West 260 299 9,700 -900 Descending Edmonton Center
06:57AM 51.2667 -113.5500 285° West 260 299 8,700 -1,140 Descending Edmonton Center
06:58AM 51.2667 -113.6667 270° West 260 299 7,500 -1,080 Descending Edmonton Center
06:59AM 51.2667 -113.8000 270° West 270 311 6,600 -540 Descending Edmonton Center
07:00AM 51.2833 -113.9167 283° West 260 299 6,500 -60 Descending Edmonton Center
07:01AM 51.2667 -114.0167 255° West 210 242 6,500 -60 Level Edmonton Center
07:02AM 51.2333 -114.0333 197° South 130 150 6,400 -420 Descending Edmonton Center
07:03AM 51.2000 -114.0333 180° South 110 127 5,700 -600 Descending Edmonton Center
07:04AM 51.1833 -114.0500 212° Southwest 110 127 5,200 -600 Descending Edmonton Center
07:05AM 51.1500 -114.0500 180° South 110 127 4,500 -600 Descending Edmonton Center
07:06AM 51.1167 -114.0333 163° South 100 115 4,000 -540 Descending Edmonton Center